createdAt,value
2023-04-23T00:00:58.693Z,92929.88
2023-04-23T00:02:31.089Z,92934.56
2023-04-23T00:04:03.117Z,92932.69
2023-04-23T00:05:36.652Z,92926.53
2023-04-23T00:07:09.629Z,92931.81
2023-04-23T00:08:41.737Z,92931.31
2023-04-23T00:10:13.672Z,92929.72
2023-04-23T00:11:45.312Z,92937.25
2023-04-23T00:13:17.098Z,92928.97
2023-04-23T00:14:48.776Z,92929.88
2023-04-23T00:16:21.267Z,92929.59
2023-04-23T00:17:53.113Z,92935.25
2023-04-23T00:19:24.693Z,92925.63
2023-04-23T00:20:56.270Z,92929.44
2023-04-23T00:22:27.952Z,92932.41
2023-04-23T00:23:59.854Z,92925.06
2023-04-23T00:25:31.759Z,92924.84
2023-04-23T00:27:03.423Z,92922.03
2023-04-23T00:28:35.730Z,92928.31
2023-04-23T00:30:07.515Z,92926.41
2023-04-23T00:31:39.235Z,92927.50
2023-04-23T00:33:11.059Z,92921.63
2023-04-23T00:34:43.127Z,92924.59
2023-04-23T00:36:15.010Z,92929.97
2023-04-23T00:37:46.665Z,92920.91
2023-04-23T00:39:18.326Z,92922.16
2023-04-23T00:40:50.262Z,92931.34
2023-04-23T00:42:22.072Z,92926.88
2023-04-23T00:43:53.989Z,92926.16
2023-04-23T00:45:25.615Z,92928.31
2023-04-23T00:46:57.217Z,92923.25
2023-04-23T00:48:29.529Z,92925.66
2023-04-23T00:50:01.143Z,92919.50
2023-04-23T00:51:32.941Z,92927.81
2023-04-23T00:53:04.622Z,92924.63
2023-04-23T00:54:36.188Z,92923.13
2023-04-23T00:56:08.728Z,92920.72
2023-04-23T00:57:40.928Z,92920.44
2023-04-23T00:59:12.579Z,92925.22
2023-04-23T01:00:46.517Z,92923.81
2023-04-23T01:02:18.253Z,92915.50
2023-04-23T01:03:50.180Z,92913.84
2023-04-23T01:05:21.859Z,92917.56
2023-04-23T01:06:53.933Z,92921.78
2023-04-23T01:08:26.240Z,92920.72
2023-04-23T01:09:57.769Z,92923.69
2023-04-23T01:11:29.420Z,92920.72
2023-04-23T01:13:01.062Z,92926.66
2023-04-23T01:14:33.845Z,92918.69
2023-04-23T01:16:06.438Z,92924.16
2023-04-23T01:17:38.729Z,92926.31
2023-04-23T01:19:11.177Z,92922.84
2023-04-23T01:20:44.139Z,92922.31
2023-04-23T01:22:16.756Z,92919.94
2023-04-23T01:23:49.042Z,92913.22
2023-04-23T01:25:20.649Z,92918.84
2023-04-23T01:26:53.030Z,92919.41
2023-04-23T01:28:24.730Z,92914.97
2023-04-23T01:29:56.299Z,92915.25
2023-04-23T01:31:28.685Z,92915.25
2023-04-23T01:33:01.088Z,92922.19
2023-04-23T01:34:32.893Z,92920.38
2023-04-23T01:36:04.558Z,92923.59
2023-04-23T01:37:36.921Z,92925.81
2023-04-23T01:39:09.744Z,92927.69
2023-04-23T01:40:41.992Z,92927.16
2023-04-23T01:42:13.798Z,92926.13
2023-04-23T01:43:45.609Z,92922.66
2023-04-23T01:45:20.205Z,92934.16
2023-04-23T01:46:52.728Z,92925.84
2023-04-23T01:48:24.868Z,92930.13
2023-04-23T01:49:56.622Z,92930.94
2023-04-23T01:51:28.364Z,92932.00
2023-04-23T01:53:00.135Z,92929.63
2023-04-23T01:54:31.967Z,92927.22
2023-04-23T01:56:03.649Z,92929.91
2023-04-23T01:57:35.584Z,92934.44
2023-04-23T01:59:07.657Z,92931.34
2023-04-23T02:00:39.429Z,92932.28
2023-04-23T02:02:14.030Z,92931.25
2023-04-23T02:03:46.497Z,92935.56
2023-04-23T02:05:18.921Z,92927.34
2023-04-23T02:06:50.867Z,92931.63
2023-04-23T02:08:22.884Z,92928.72
2023-04-23T02:09:54.994Z,92938.41
2023-04-23T02:11:27.148Z,92925.59
2023-04-23T02:12:59.154Z,92919.81
2023-04-23T02:14:30.895Z,92920.38
2023-04-23T02:16:02.838Z,92921.44
2023-04-23T02:17:34.617Z,92917.69
2023-04-23T02:19:06.453Z,92920.88
2023-04-23T02:20:40.801Z,92921.09
2023-04-23T02:22:12.412Z,92921.09
2023-04-23T02:23:44.022Z,92920.00
2023-04-23T02:25:17.134Z,92919.72
2023-04-23T02:26:49.080Z,92917.56
2023-04-23T02:28:20.600Z,92916.72
2023-04-23T02:29:52.394Z,92924.16
2023-04-23T02:31:24.030Z,92920.69
2023-04-23T02:32:56.205Z,92923.97
2023-04-23T02:34:27.818Z,92923.44
2023-04-23T02:35:59.375Z,92926.13
2023-04-23T02:37:31.086Z,92922.34
2023-04-23T02:39:02.697Z,92917.56
2023-04-23T02:40:34.710Z,92922.41
2023-04-23T02:42:06.293Z,92920.81
2023-04-23T02:43:37.970Z,92930.94
2023-04-23T02:45:10.945Z,92925.88
2023-04-23T02:46:42.730Z,92920.31
2023-04-23T02:48:14.264Z,92927.03
2023-04-23T02:49:47.724Z,92920.09
2023-04-23T02:51:19.230Z,92926.22
2023-04-23T02:52:50.950Z,92919.81
2023-04-23T02:54:22.779Z,92929.97
2023-04-23T02:55:54.358Z,92931.84
2023-04-23T02:57:25.890Z,92926.28
2023-04-23T02:58:57.797Z,92935.66
2023-04-23T03:00:29.352Z,92934.38
2023-04-23T03:02:00.938Z,92931.72
2023-04-23T03:03:32.985Z,92941.09
2023-04-23T03:05:05.008Z,92941.69
2023-04-23T03:06:37.068Z,92940.94
2023-04-23T03:08:08.633Z,92941.50
2023-04-23T03:09:42.403Z,92943.38
2023-04-23T03:11:14.053Z,92947.94
2023-04-23T03:12:45.682Z,92938.59
2023-04-23T03:14:17.182Z,92949.31
2023-04-23T03:15:48.786Z,92953.34
2023-04-23T03:17:20.336Z,92949.66
2023-04-23T03:18:51.841Z,92955.84
2023-04-23T03:20:23.778Z,92950.56
2023-04-23T03:21:55.686Z,92948.44
2023-04-23T03:23:27.188Z,92945.50
2023-04-23T03:24:58.839Z,92955.91
2023-04-23T03:26:30.507Z,92954.03
2023-04-23T03:28:02.493Z,92952.44
2023-04-23T03:29:34.536Z,92953.44
2023-04-23T03:31:06.199Z,92943.56
2023-04-23T03:32:38.393Z,92951.25
2023-04-23T03:34:10.103Z,92947.22
2023-04-23T03:35:41.803Z,92947.72
2023-04-23T03:37:13.629Z,92942.13
2023-04-23T03:38:45.257Z,92947.97
2023-04-23T03:40:16.854Z,92949.84
2023-04-23T03:41:48.400Z,92950.38
2023-04-23T03:43:20.276Z,92954.63
2023-04-23T03:44:52.025Z,92958.84
2023-04-23T03:46:23.636Z,92949.47
2023-04-23T03:47:55.203Z,92955.09
2023-04-23T03:49:26.784Z,92953.50
2023-04-23T03:50:58.573Z,92955.88
2023-04-23T03:52:30.072Z,92960.41
2023-04-23T03:54:01.745Z,92960.88
2023-04-23T03:55:33.238Z,92959.31
2023-04-23T03:57:05.068Z,92963.06
2023-04-23T03:58:36.817Z,92955.06
2023-04-23T04:00:08.582Z,92966.03
2023-04-23T04:01:40.140Z,92959.59
2023-04-23T04:03:11.999Z,92960.69
2023-04-23T04:04:46.609Z,92957.47
2023-04-23T04:06:18.798Z,92963.91
2023-04-23T04:07:50.372Z,92958.53
2023-04-23T04:09:22.277Z,92961.94
2023-04-23T04:10:54.001Z,92965.84
2023-04-23T04:12:25.959Z,92965.53
2023-04-23T04:13:57.509Z,92964.16
2023-04-23T04:15:29.116Z,92970.53
2023-04-23T04:17:00.666Z,92969.41
2023-04-23T04:18:32.210Z,92967.44
2023-04-23T04:20:03.899Z,92975.19
2023-04-23T04:21:36.155Z,92971.91
2023-04-23T04:23:07.671Z,92965.72
2023-04-23T04:24:42.393Z,92975.25
2023-04-23T04:26:15.364Z,92974.94
2023-04-23T04:27:46.916Z,92969.31
2023-04-23T04:29:20.096Z,92972.78
2023-04-23T04:30:54.148Z,92976.53
2023-04-23T04:32:27.279Z,92971.97
2023-04-23T04:33:59.128Z,92982.88
2023-04-23T04:35:31.306Z,92985.56
2023-04-23T04:37:02.966Z,92986.31
2023-04-23T04:38:34.557Z,92983.56
2023-04-23T04:40:07.698Z,92993.13
2023-04-23T04:41:39.606Z,92993.34
2023-04-23T04:43:11.273Z,92985.81
2023-04-23T04:44:43.821Z,92994.59
2023-04-23T04:46:15.955Z,92983.31
2023-04-23T04:47:48.198Z,92988.53
2023-04-23T04:49:19.766Z,92993.00
2023-04-23T04:50:51.801Z,92992.94
2023-04-23T04:52:23.966Z,92992.28
2023-04-23T04:53:56.841Z,92994.53
2023-04-23T04:55:28.533Z,92995.16
2023-04-23T04:57:00.147Z,92999.84
2023-04-23T04:58:32.119Z,93000.00
2023-04-23T05:00:07.067Z,93008.75
2023-04-23T05:01:38.688Z,93003.84
2023-04-23T05:03:13.433Z,93001.72
2023-04-23T05:04:45.871Z,93000.94
2023-04-23T05:06:17.749Z,92997.16
2023-04-23T05:07:49.390Z,93006.28
2023-04-23T05:09:21.071Z,93006.19
2023-04-23T05:10:54.351Z,93006.19
2023-04-23T05:12:26.038Z,93005.63
2023-04-23T05:13:57.705Z,93008.00
2023-04-23T05:15:29.417Z,93005.75
2023-04-23T05:17:01.213Z,93008.84
2023-04-23T05:18:32.872Z,93011.16
2023-04-23T05:20:04.936Z,93013.75
2023-04-23T05:21:36.682Z,93014.44
2023-04-23T05:23:08.451Z,93010.59
2023-04-23T05:24:40.267Z,93016.41
2023-04-23T05:26:12.073Z,93010.97
2023-04-23T05:27:43.655Z,93014.03
2023-04-23T05:29:19.411Z,93012.88
2023-04-23T05:30:51.222Z,93010.47
2023-04-23T05:32:22.929Z,93009.50
2023-04-23T05:33:55.237Z,93013.06
2023-04-23T05:35:26.948Z,93015.25
2023-04-23T05:36:58.540Z,93016.84
2023-04-23T05:38:30.122Z,93017.94
2023-04-23T05:40:02.883Z,93017.22
2023-04-23T05:41:34.756Z,93023.78
2023-04-23T05:43:07.090Z,93018.97
2023-04-23T05:44:39.252Z,93020.78
2023-04-23T05:46:11.389Z,93023.47
2023-04-23T05:47:43.527Z,93027.31
2023-04-23T05:49:15.884Z,93012.75
2023-04-23T05:50:49.473Z,93017.47
2023-04-23T05:52:21.482Z,93016.66
2023-04-23T05:53:53.207Z,93025.41
2023-04-23T05:55:24.913Z,93018.44
2023-04-23T05:56:56.942Z,93020.81
2023-04-23T05:58:28.987Z,93012.25
2023-04-23T06:00:00.689Z,93026.00
2023-04-23T06:01:33.246Z,93012.88
2023-04-23T06:03:05.032Z,93020.88
2023-04-23T06:04:37.838Z,93017.16
2023-04-23T06:06:09.749Z,93015.50
2023-04-23T06:07:42.414Z,93012.22
2023-04-23T06:09:14.105Z,93015.31
2023-04-23T06:10:46.320Z,93010.81
2023-04-23T06:12:18.813Z,93008.16
2023-04-23T06:13:50.768Z,93009.47
2023-04-23T06:15:27.115Z,93009.97
2023-04-23T06:16:58.822Z,93007.00
2023-04-23T06:18:30.518Z,93010.19
2023-04-23T06:20:02.329Z,93009.91
2023-04-23T06:21:33.917Z,93009.28
2023-04-23T06:23:06.611Z,93008.69
2023-04-23T06:24:39.127Z,93008.53
2023-04-23T06:26:11.128Z,93014.13
2023-04-23T06:27:43.170Z,93006.66
2023-04-23T06:29:14.696Z,93008.09
2023-04-23T06:30:46.749Z,93007.78
2023-04-23T06:32:20.591Z,93007.91
2023-04-23T06:33:52.533Z,93004.88
2023-04-23T06:35:24.160Z,93002.69
2023-04-23T06:36:55.907Z,92996.94
2023-04-23T06:38:27.510Z,92999.19
2023-04-23T06:39:59.564Z,93008.69
2023-04-23T06:41:31.379Z,93011.84
2023-04-23T06:43:05.366Z,93007.09
2023-04-23T06:44:36.914Z,92996.09
2023-04-23T06:46:08.575Z,93007.84
2023-04-23T06:47:40.316Z,93001.84
2023-04-23T06:49:12.878Z,93009.75
2023-04-23T06:50:44.797Z,93007.97
2023-04-23T06:52:16.378Z,93007.50
2023-04-23T06:53:48.030Z,93009.16
2023-04-23T06:55:20.998Z,93011.19
2023-04-23T06:56:52.801Z,93019.41
2023-04-23T06:58:31.384Z,93009.09
2023-04-23T07:00:03.087Z,93009.75
2023-04-23T07:01:35.220Z,93016.38
2023-04-23T07:03:07.019Z,93010.59
2023-04-23T07:04:38.870Z,93009.78
2023-04-23T07:06:11.550Z,93011.09
2023-04-23T07:07:43.608Z,93006.56
2023-04-23T07:09:15.477Z,93013.41
2023-04-23T07:10:47.212Z,93001.53
2023-04-23T07:12:19.372Z,93005.16
2023-04-23T07:13:51.387Z,92996.19
2023-04-23T07:15:23.249Z,93008.47
2023-04-23T07:16:55.289Z,93004.84
2023-04-23T07:18:27.172Z,93010.41
2023-04-23T07:19:58.852Z,92998.06
2023-04-23T07:21:30.795Z,93008.25
2023-04-23T07:23:04.349Z,93003.91
2023-04-23T07:24:36.038Z,93011.00
2023-04-23T07:26:07.703Z,93002.38
2023-04-23T07:27:39.310Z,93006.34
2023-04-23T07:29:12.115Z,93004.31
2023-04-23T07:30:43.787Z,92997.00
2023-04-23T07:32:15.495Z,93004.44
2023-04-23T07:33:47.802Z,92999.25
2023-04-23T07:35:19.838Z,93004.97
2023-04-23T07:36:52.340Z,93000.41
2023-04-23T07:38:24.520Z,92997.59
2023-04-23T07:39:56.074Z,92999.69
2023-04-23T07:41:27.814Z,92999.47
2023-04-23T07:42:59.708Z,92993.84
2023-04-23T07:44:31.401Z,92995.88
2023-04-23T07:46:03.319Z,93004.34
2023-04-23T07:47:34.960Z,92993.41
2023-04-23T07:49:08.023Z,92995.66
2023-04-23T07:50:40.136Z,92987.84
2023-04-23T07:52:12.288Z,92998.25
2023-04-23T07:53:44.915Z,92996.88
2023-04-23T07:55:16.590Z,92994.72
2023-04-23T07:56:48.794Z,92994.72
2023-04-23T07:58:20.656Z,92998.22
2023-04-23T07:59:52.386Z,92995.25
2023-04-23T08:01:24.144Z,92992.41
2023-04-23T08:02:55.896Z,92990.16
2023-04-23T08:04:28.115Z,92994.38
2023-04-23T08:05:59.942Z,92995.19
2023-04-23T08:07:32.038Z,92994.13
2023-04-23T08:09:06.791Z,92984.47
2023-04-23T08:10:38.441Z,92985.91
2023-04-23T08:12:10.152Z,92988.03
2023-04-23T08:13:41.778Z,92989.81
2023-04-23T08:15:13.570Z,92980.38
2023-04-23T08:16:45.419Z,92980.41
2023-04-23T08:18:17.435Z,92987.13
2023-04-23T08:19:49.064Z,92983.56
2023-04-23T08:21:21.295Z,92984.25
2023-04-23T08:22:53.972Z,92986.91
2023-04-23T08:24:26.157Z,92983.38
2023-04-23T08:25:57.836Z,92987.31
2023-04-23T08:27:29.646Z,92980.03
2023-04-23T08:29:01.327Z,92981.19
2023-04-23T08:30:32.912Z,92986.78
2023-04-23T08:32:07.034Z,92983.72
2023-04-23T08:33:38.748Z,92973.31
2023-04-23T08:35:10.814Z,92977.50
2023-04-23T08:36:43.100Z,92970.19
2023-04-23T08:38:14.655Z,92975.72
2023-04-23T08:39:47.205Z,92970.59
2023-04-23T08:41:19.024Z,92969.06
2023-04-23T08:42:56.238Z,92973.81
2023-04-23T08:44:29.090Z,92975.50
2023-04-23T08:46:06.301Z,92966.19
2023-04-23T08:47:40.811Z,92968.47
2023-04-23T08:49:13.758Z,92970.72
2023-04-23T08:50:45.498Z,92964.50
2023-04-23T08:52:21.121Z,92965.16
2023-04-23T08:53:53.063Z,92959.06
2023-04-23T08:55:24.837Z,92953.88
2023-04-23T08:56:58.412Z,92953.84
2023-04-23T08:58:30.387Z,92962.09
2023-04-23T09:00:01.994Z,92962.94
2023-04-23T09:01:33.977Z,92958.19
2023-04-23T09:03:06.503Z,92967.06
2023-04-23T09:04:38.420Z,92962.34
2023-04-23T09:06:10.332Z,92961.22
2023-04-23T09:07:42.100Z,92958.13
2023-04-23T09:09:17.522Z,92952.97
2023-04-23T09:10:50.560Z,92958.66
2023-04-23T09:12:22.241Z,92953.06
2023-04-23T09:13:53.861Z,92945.31
2023-04-23T09:15:25.654Z,92954.78
2023-04-23T09:16:57.592Z,92945.53
2023-04-23T09:18:29.335Z,92941.00
2023-04-23T09:20:00.918Z,92945.13
2023-04-23T09:21:33.490Z,92944.28
2023-04-23T09:23:09.087Z,92938.38
2023-04-23T09:24:44.080Z,92944.44
2023-04-23T09:26:24.764Z,92951.94
2023-04-23T09:27:56.419Z,92943.22
2023-04-23T09:29:28.909Z,92946.25
2023-04-23T09:31:01.001Z,92938.22
2023-04-23T09:32:35.618Z,92941.75
2023-04-23T09:34:07.370Z,92937.00
2023-04-23T09:35:40.769Z,92937.44
2023-04-23T09:37:12.956Z,92934.59
2023-04-23T09:38:45.293Z,92937.00
2023-04-23T09:40:17.357Z,92931.50
2023-04-23T09:41:49.315Z,92925.34
2023-04-23T09:43:21.070Z,92924.41
2023-04-23T09:45:05.979Z,92917.94
2023-04-23T09:46:38.596Z,92918.81
2023-04-23T09:48:10.392Z,92920.53
2023-04-23T09:49:46.484Z,92918.03
2023-04-23T09:51:18.154Z,92911.97
2023-04-23T09:52:54.041Z,92905.38
2023-04-23T09:54:27.068Z,92905.88
2023-04-23T09:55:58.678Z,92912.06
2023-04-23T09:57:30.349Z,92911.25
2023-04-23T09:59:02.136Z,92908.09
2023-04-23T10:00:34.950Z,92915.72
2023-04-23T10:02:07.534Z,92911.19
2023-04-23T10:03:45.060Z,92904.50
2023-04-23T10:05:25.061Z,92911.59
2023-04-23T10:07:17.304Z,92900.41
2023-04-23T10:08:50.994Z,92896.16
2023-04-23T10:10:22.939Z,92885.44
2023-04-23T10:11:55.601Z,92897.72
2023-04-23T10:13:27.798Z,92892.31
2023-04-23T10:14:59.876Z,92889.19
2023-04-23T10:16:42.045Z,92889.03
2023-04-23T10:18:20.624Z,92882.25
2023-04-23T10:19:52.584Z,92880.06
2023-04-23T10:21:26.909Z,92878.03
2023-04-23T10:22:58.552Z,92880.19
2023-04-23T10:24:30.695Z,92880.91
2023-04-23T10:26:02.325Z,92870.94
2023-04-23T10:27:51.253Z,92862.72
2023-04-23T10:29:34.374Z,92858.34
2023-04-23T10:31:06.138Z,92849.19
2023-04-23T10:32:38.664Z,92853.88
2023-04-23T10:34:10.832Z,92861.28
2023-04-23T10:35:42.710Z,92854.63
2023-04-23T10:37:15.322Z,92865.59
2023-04-23T10:38:57.372Z,92851.66
2023-04-23T10:40:30.798Z,92848.88
2023-04-23T10:42:02.714Z,92850.75
2023-04-23T10:43:34.313Z,92850.03
2023-04-23T10:45:22.600Z,92841.94
2023-04-23T10:47:00.907Z,92851.38
2023-04-23T10:48:51.757Z,92843.72
2023-04-23T10:50:24.727Z,92851.19
2023-04-23T10:53:36.568Z,92845.59
2023-04-23T10:55:16.644Z,92841.75
2023-04-23T10:56:48.303Z,92835.13
2023-04-23T10:58:22.111Z,92836.75
2023-04-23T10:59:54.369Z,92829.72
2023-04-23T11:01:26.958Z,92830.56
2023-04-23T11:02:59.290Z,92828.28
2023-04-23T11:04:31.294Z,92822.03
2023-04-23T11:06:03.681Z,92820.47
2023-04-23T11:07:35.640Z,92822.53
2023-04-23T11:09:26.392Z,92829.63
2023-04-23T11:10:58.853Z,92825.31
2023-04-23T11:12:32.307Z,92828.06
2023-04-23T11:14:03.901Z,92825.72
2023-04-23T11:15:35.963Z,92821.44
2023-04-23T11:17:07.678Z,92823.00
2023-04-23T11:18:57.715Z,92817.53
2023-04-23T11:20:29.243Z,92828.09
2023-04-23T11:22:01.767Z,92813.66
2023-04-23T11:23:33.417Z,92823.44
2023-04-23T11:25:06.592Z,92828.94
2023-04-23T11:26:38.321Z,92826.59
2023-04-23T11:28:09.853Z,92830.16
2023-04-23T11:29:42.179Z,92832.13
2023-04-23T11:31:14.216Z,92825.06
2023-04-23T11:32:46.493Z,92824.31
2023-04-23T11:34:18.291Z,92820.78
2023-04-23T11:35:50.609Z,92825.88
2023-04-23T11:37:22.225Z,92828.72
2023-04-23T11:38:56.498Z,92821.69
2023-04-23T11:40:31.156Z,92817.00
2023-04-23T11:42:03.528Z,92812.66
2023-04-23T11:43:36.640Z,92823.59
2023-04-23T11:45:14.989Z,92820.44
2023-04-23T11:46:48.050Z,92825.50
2023-04-23T11:48:19.820Z,92820.78
2023-04-23T11:49:51.737Z,92816.09
2023-04-23T11:51:26.713Z,92826.25
2023-04-23T11:52:58.373Z,92824.72
2023-04-23T11:54:30.089Z,92825.19
2023-04-23T11:56:01.740Z,92825.59
2023-04-23T11:57:37.888Z,92824.06
2023-04-23T11:59:09.716Z,92813.06
2023-04-23T12:00:41.553Z,92820.91
2023-04-23T12:02:13.450Z,92817.75
2023-04-23T12:03:49.103Z,92813.03
2023-04-23T12:05:21.856Z,92809.91
2023-04-23T12:06:54.338Z,92809.06
2023-04-23T12:08:26.203Z,92808.28
2023-04-23T12:10:00.885Z,92810.22
2023-04-23T12:11:32.522Z,92810.63
2023-04-23T12:13:04.161Z,92810.63
2023-04-23T12:14:36.213Z,92816.09
2023-04-23T12:16:09.188Z,92810.63
2023-04-23T12:17:42.820Z,92810.63
2023-04-23T12:19:15.858Z,92809.03
2023-04-23T12:20:47.795Z,92812.53
2023-04-23T12:22:20.204Z,92805.03
2023-04-23T12:23:51.942Z,92811.31
2023-04-23T12:25:24.167Z,92807.00
2023-04-23T12:27:00.932Z,92804.66
2023-04-23T12:28:33.232Z,92797.22
2023-04-23T12:30:07.269Z,92796.47
2023-04-23T12:31:39.323Z,92794.56
2023-04-23T12:33:11.498Z,92794.97
2023-04-23T12:34:55.141Z,92791.88
2023-04-23T12:36:27.638Z,92794.28
2023-04-23T12:37:59.355Z,92793.09
2023-04-23T12:39:32.239Z,92789.19
2023-04-23T12:41:03.858Z,92782.16
2023-04-23T12:42:36.386Z,92786.03
2023-04-23T12:44:08.472Z,92780.19
2023-04-23T12:45:40.172Z,92783.31
2023-04-23T12:47:12.056Z,92773.88
2023-04-23T12:48:43.730Z,92773.09
2023-04-23T12:50:15.771Z,92773.44
2023-04-23T12:51:47.345Z,92773.81
2023-04-23T12:53:18.958Z,92769.91
2023-04-23T12:54:56.705Z,92771.88
2023-04-23T12:56:28.455Z,92771.13
2023-04-23T12:58:00.065Z,92769.19
2023-04-23T12:59:32.014Z,92766.06
2023-04-23T13:01:03.690Z,92768.78
2023-04-23T13:02:35.523Z,92775.88
2023-04-23T13:04:07.924Z,92768.03
2023-04-23T13:05:39.734Z,92765.28
2023-04-23T13:07:11.376Z,92769.22
2023-04-23T13:08:43.100Z,92766.47
2023-04-23T13:10:15.187Z,92768.78
2023-04-23T13:11:48.814Z,92770.69
2023-04-23T13:13:20.740Z,92765.94
2023-04-23T13:14:52.611Z,92763.59
2023-04-23T13:16:24.441Z,92762.41
2023-04-23T13:17:56.203Z,92770.22
2023-04-23T13:19:27.865Z,92755.25
2023-04-23T13:20:59.534Z,92759.06
2023-04-23T13:22:32.130Z,92754.34
2023-04-23T13:24:04.008Z,92754.66
2023-04-23T13:25:35.609Z,92765.50
2023-04-23T13:27:07.334Z,92754.41
2023-04-23T13:28:39.200Z,92755.69
2023-04-23T13:30:11.281Z,92759.88
2023-04-23T13:31:43.064Z,92757.84
2023-04-23T13:33:15.044Z,92762.88
2023-04-23T13:34:46.709Z,92762.47
2023-04-23T13:36:18.631Z,92757.91
2023-04-23T13:37:50.875Z,92758.72
2023-04-23T13:39:23.846Z,92761.41
2023-04-23T13:40:55.455Z,92755.38
2023-04-23T13:42:27.033Z,92747.53
2023-04-23T13:43:58.837Z,92758.88
2023-04-23T13:45:30.786Z,92749.91
2023-04-23T13:47:02.819Z,92754.59
2023-04-23T13:48:34.960Z,92755.38
2023-04-23T13:50:07.446Z,92753.47
2023-04-23T13:51:39.313Z,92746.63
2023-04-23T13:53:11.236Z,92748.66
2023-04-23T13:54:42.823Z,92752.63
2023-04-23T13:56:14.363Z,92751.53
2023-04-23T13:57:46.167Z,92748.84
2023-04-23T13:59:19.983Z,92749.53
2023-04-23T14:00:52.742Z,92750.97
2023-04-23T14:02:24.439Z,92743.53
2023-04-23T14:03:57.321Z,92744.75
2023-04-23T14:05:28.949Z,92740.41
2023-04-23T14:07:00.752Z,92742.25
2023-04-23T14:08:32.368Z,92744.34
2023-04-23T14:10:04.650Z,92741.13
2023-04-23T14:11:36.418Z,92735.97
2023-04-23T14:13:07.987Z,92737.94
2023-04-23T14:14:39.584Z,92739.59
2023-04-23T14:16:11.370Z,92741.16
2023-04-23T14:17:44.336Z,92740.75
2023-04-23T14:19:15.904Z,92741.53
2023-04-23T14:20:47.475Z,92741.16
2023-04-23T14:22:19.071Z,92743.66
2023-04-23T14:23:51.753Z,92737.53
2023-04-23T14:25:30.331Z,92743.09
2023-04-23T14:27:03.855Z,92745.56
2023-04-23T14:28:41.201Z,92743.22
2023-04-23T14:30:16.793Z,92735.38
2023-04-23T14:31:48.416Z,92737.34
2023-04-23T14:33:19.937Z,92740.84
2023-04-23T14:34:51.887Z,92736.91
2023-04-23T14:36:23.953Z,92741.16
2023-04-23T14:37:55.536Z,92743.41
2023-04-23T14:39:27.216Z,92742.22
2023-04-23T14:40:59.090Z,92736.69
2023-04-23T14:42:30.737Z,92739.81
2023-04-23T14:44:02.408Z,92738.59
2023-04-23T14:45:33.976Z,92740.19
2023-04-23T14:47:08.251Z,92738.22
2023-04-23T14:48:40.401Z,92742.13
2023-04-23T14:50:12.058Z,92741.16
2023-04-23T14:51:44.063Z,92732.47
2023-04-23T14:53:15.647Z,92738.69
2023-04-23T14:54:47.296Z,92743.75
2023-04-23T14:56:18.948Z,92742.16
2023-04-23T14:57:51.059Z,92733.97
2023-04-23T14:59:23.058Z,92738.66
2023-04-23T15:00:54.656Z,92736.69
2023-04-23T15:02:27.031Z,92736.31
2023-04-23T15:03:58.882Z,92729.72
2023-04-23T15:05:30.666Z,92737.38
2023-04-23T15:07:02.812Z,92732.53
2023-04-23T15:08:34.389Z,92731.25
2023-04-23T15:10:06.667Z,92733.56
2023-04-23T15:11:38.978Z,92730.09
2023-04-23T15:13:13.972Z,92723.81
2023-04-23T15:14:46.519Z,92731.09
2023-04-23T15:16:46.650Z,92730.50
2023-04-23T15:18:19.587Z,92722.25
2023-04-23T15:19:54.465Z,92732.00
2023-04-23T15:21:26.173Z,92721.09
2023-04-23T15:22:57.917Z,92728.72
2023-04-23T15:24:29.525Z,92721.78
2023-04-23T15:26:01.820Z,92728.47
2023-04-23T15:27:33.450Z,92724.53
2023-04-23T15:29:06.230Z,92715.63
2023-04-23T15:30:39.943Z,92725.81
2023-04-23T15:32:12.291Z,92731.69
2023-04-23T15:33:44.740Z,92730.09
2023-04-23T15:35:16.515Z,92720.59
2023-04-23T15:36:48.057Z,92727.06
2023-04-23T15:38:20.401Z,92723.13
2023-04-23T15:39:52.078Z,92725.13
2023-04-23T15:41:23.715Z,92726.78
2023-04-23T15:42:55.870Z,92725.97
2023-04-23T15:44:27.594Z,92725.47
2023-04-23T15:46:01.599Z,92721.97
2023-04-23T15:47:33.241Z,92723.91
2023-04-23T15:49:05.745Z,92723.91
2023-04-23T15:50:37.672Z,92721.88
2023-04-23T15:52:09.391Z,92720.03
2023-04-23T15:53:41.052Z,92725.56
2023-04-23T15:55:12.670Z,92726.25
2023-04-23T15:56:44.890Z,92723.81
2023-04-23T15:58:16.826Z,92722.75
2023-04-23T15:59:48.549Z,92725.06
2023-04-23T16:01:22.264Z,92723.00
2023-04-23T16:02:55.379Z,92724.06
2023-04-23T16:04:27.270Z,92725.56
2023-04-23T16:05:59.070Z,92725.59
2023-04-23T16:07:30.982Z,92727.41
2023-04-23T16:09:03.754Z,92723.72
2023-04-23T16:10:35.398Z,92725.75
2023-04-23T16:12:07.981Z,92726.03
2023-04-23T16:13:40.985Z,92725.09
2023-04-23T16:15:12.954Z,92723.16
2023-04-23T16:16:44.681Z,92726.03
2023-04-23T16:18:16.579Z,92726.03
2023-04-23T16:19:48.350Z,92720.88
2023-04-23T16:21:23.129Z,92724.75
2023-04-23T16:22:55.031Z,92723.16
2023-04-23T16:24:26.778Z,92724.22
2023-04-23T16:25:58.757Z,92717.59
2023-04-23T16:27:30.371Z,92724.31
2023-04-23T16:30:36.360Z,92725.19
2023-04-23T16:32:08.262Z,92722.66
2023-04-23T16:33:40.817Z,92719.44
2023-04-23T16:35:12.508Z,92725.16
2023-04-23T16:36:44.094Z,92726.94
2023-04-23T16:38:15.722Z,92725.38
2023-04-23T16:39:47.265Z,92723.09
2023-04-23T16:41:19.918Z,92725.47
2023-04-23T16:42:51.521Z,92727.88
2023-04-23T16:44:23.109Z,92717.06
2023-04-23T16:45:54.669Z,92712.94
2023-04-23T16:47:26.705Z,92721.50
2023-04-23T16:48:58.385Z,92721.16
2023-04-23T16:50:30.076Z,92708.69
2023-04-23T16:52:03.585Z,92724.19
2023-04-23T16:53:36.306Z,92722.25
2023-04-23T16:55:08.011Z,92716.06
2023-04-23T16:56:39.936Z,92711.78
2023-04-23T16:58:12.262Z,92713.34
2023-04-23T16:59:43.812Z,92715.28
2023-04-23T17:01:16.656Z,92714.50
2023-04-23T17:02:48.273Z,92721.09
2023-04-23T17:04:20.246Z,92712.44
2023-04-23T17:05:55.093Z,92710.41
2023-04-23T17:07:26.861Z,92716.94
2023-04-23T17:08:59.134Z,92711.00
2023-04-23T17:10:31.446Z,92719.34
2023-04-23T17:12:03.083Z,92716.75
2023-04-23T17:13:35.089Z,92716.69
2023-04-23T17:15:07.142Z,92713.91
2023-04-23T17:16:38.885Z,92716.19
2023-04-23T17:18:12.453Z,92720.66
2023-04-23T17:19:45.964Z,92720.47
2023-04-23T17:21:17.470Z,92719.88
2023-04-23T17:22:49.358Z,92718.59
2023-04-23T17:24:20.930Z,92724.63
2023-04-23T17:25:52.561Z,92721.75
2023-04-23T17:27:24.101Z,92726.47
2023-04-23T17:28:56.927Z,92728.84
2023-04-23T17:30:28.571Z,92727.53
2023-04-23T17:32:00.281Z,92732.88
2023-04-23T17:33:31.792Z,92738.38
2023-04-23T17:35:10.075Z,92733.53
2023-04-23T17:36:42.398Z,92740.66
2023-04-23T17:38:14.319Z,92738.91
2023-04-23T17:39:46.238Z,92736.38
2023-04-23T17:41:19.275Z,92741.00
2023-04-23T17:42:50.806Z,92738.00
2023-04-23T17:44:22.652Z,92734.28
2023-04-23T17:45:54.319Z,92739.53
2023-04-23T17:47:26.254Z,92737.63
2023-04-23T17:48:58.443Z,92747.28
2023-04-23T17:50:30.247Z,92750.72
2023-04-23T17:52:03.416Z,92746.41
2023-04-23T17:53:35.038Z,92754.22
2023-04-23T17:55:07.632Z,92751.06
2023-04-23T17:56:39.711Z,92753.97
2023-04-23T17:58:11.236Z,92754.03
2023-04-23T17:59:43.039Z,92756.94
2023-04-23T18:01:15.576Z,92758.72
2023-04-23T18:02:47.364Z,92762.81
2023-04-23T18:04:19.701Z,92764.38
2023-04-23T18:05:51.826Z,92768.78
2023-04-23T18:07:23.880Z,92767.41
2023-04-23T18:08:55.542Z,92779.13
2023-04-23T18:10:27.489Z,92775.84